createdAt,value
2019-05-18T00:00:51.289Z,993.2
2019-05-18T00:01:52.656Z,993.2
2019-05-18T00:02:54.004Z,993.2
2019-05-18T00:03:55.361Z,993.2
2019-05-18T00:04:56.719Z,993.3
2019-05-18T00:05:58.065Z,993.3
2019-05-18T00:06:59.423Z,993.3
2019-05-18T00:08:00.770Z,993.2
2019-05-18T00:09:02.223Z,993.3
2019-05-18T00:10:03.565Z,993.2
2019-05-18T00:11:04.921Z,993.3
2019-05-18T00:12:06.268Z,993.3
2019-05-18T00:13:07.628Z,993.3
2019-05-18T00:14:08.970Z,993.3
2019-05-18T00:15:10.328Z,993.3
2019-05-18T00:16:11.688Z,993.3
2019-05-18T00:17:24.398Z,993.3
2019-05-18T00:18:53.968Z,993.3
2019-05-18T00:19:55.315Z,993.3
2019-05-18T00:20:56.695Z,993.3
2019-05-18T00:21:58.089Z,993.3
2019-05-18T00:22:59.415Z,993.3
2019-05-18T00:24:00.835Z,993.3
2019-05-18T00:25:02.205Z,993.3
2019-05-18T00:26:03.605Z,993.3
2019-05-18T00:27:04.984Z,993.3
2019-05-18T00:28:06.376Z,993.3
2019-05-18T00:29:07.759Z,993.3
2019-05-18T00:30:09.173Z,993.4
2019-05-18T00:31:10.559Z,993.4
2019-05-18T00:32:12.016Z,993.4
2019-05-18T00:33:13.336Z,993.4
2019-05-18T00:34:14.686Z,993.3
2019-05-18T00:35:16.758Z,993.3
2019-05-18T00:36:17.359Z,993.4
2019-05-18T00:37:18.801Z,993.3
2019-05-18T00:38:20.121Z,993.3
2019-05-18T00:39:21.506Z,993.3
2019-05-18T00:40:22.858Z,993.3
2019-05-18T00:41:24.214Z,993.3
2019-05-18T00:42:25.553Z,993.3
2019-05-18T00:43:26.915Z,993.4
2019-05-18T00:44:28.266Z,993.4
2019-05-18T00:45:29.625Z,993.3
2019-05-18T00:46:30.977Z,993.2
2019-05-18T00:47:40.873Z,993.2
2019-05-18T00:48:33.646Z,993.2
2019-05-18T00:49:35.115Z,993.2
2019-05-18T00:50:36.466Z,993.2
2019-05-18T00:51:37.815Z,993.2
2019-05-18T00:52:39.170Z,993.2
2019-05-18T00:53:40.524Z,993.2
2019-05-18T00:54:41.888Z,993.1
2019-05-18T00:55:43.235Z,993.1
2019-05-18T00:56:44.600Z,993.2
2019-05-18T00:57:45.961Z,993.1
2019-05-18T00:58:47.316Z,993.2
2019-05-18T00:59:48.728Z,993.2
2019-05-18T01:00:50.082Z,993.2
2019-05-18T01:01:51.437Z,993.1
2019-05-18T01:02:52.795Z,993.1
2019-05-18T01:03:54.164Z,993.1
2019-05-18T01:04:55.516Z,993.2
2019-05-18T01:05:56.869Z,993.2
2019-05-18T01:06:58.225Z,993.1
2019-05-18T01:07:59.594Z,993.2
2019-05-18T01:09:00.940Z,993.1
2019-05-18T01:10:02.343Z,993.2
2019-05-18T01:11:03.681Z,993.1
2019-05-18T01:12:05.030Z,993.1
2019-05-18T01:13:06.389Z,993.2
2019-05-18T01:14:07.753Z,993.1
2019-05-18T01:15:09.101Z,993.1
2019-05-18T01:16:10.451Z,993.1
2019-05-18T01:17:11.810Z,993.1
2019-05-18T01:18:13.160Z,993.1
2019-05-18T01:19:14.512Z,993.1
2019-05-18T01:20:15.879Z,993.1
2019-05-18T01:21:17.291Z,993.1
2019-05-18T01:22:18.591Z,993.1
2019-05-18T01:23:19.963Z,993.1
2019-05-18T01:24:21.342Z,993.1
2019-05-18T01:25:22.677Z,993.1
2019-05-18T01:26:24.071Z,993.1
2019-05-18T01:27:25.422Z,993.0
2019-05-18T01:28:26.779Z,993.0
2019-05-18T01:29:28.144Z,993.0
2019-05-18T01:30:29.492Z,993.0
2019-05-18T01:31:30.862Z,993.0
2019-05-18T01:32:32.204Z,993.0
2019-05-18T01:33:33.559Z,992.9
2019-05-18T01:34:34.919Z,992.9
2019-05-18T01:35:36.291Z,992.9
2019-05-18T01:36:37.646Z,993.0
2019-05-18T01:37:38.996Z,992.9
2019-05-18T01:38:40.350Z,992.9
2019-05-18T01:39:41.700Z,992.9
2019-05-18T01:40:43.046Z,992.9
2019-05-18T01:41:44.407Z,992.9
2019-05-18T01:42:45.766Z,992.8
2019-05-18T01:43:47.166Z,992.9
2019-05-18T01:44:48.465Z,992.9
2019-05-18T01:45:49.836Z,992.9
2019-05-18T01:46:51.234Z,992.9
2019-05-18T01:47:52.595Z,992.9
2019-05-18T01:48:53.936Z,992.9
2019-05-18T01:49:55.301Z,992.9
2019-05-18T01:50:56.656Z,992.8
2019-05-18T01:51:58.014Z,992.8
2019-05-18T01:52:59.366Z,992.8
2019-05-18T01:54:00.723Z,992.8
2019-05-18T01:55:02.073Z,992.8
2019-05-18T01:56:03.437Z,992.8
2019-05-18T01:57:04.815Z,992.8
2019-05-18T01:58:06.156Z,992.9
2019-05-18T01:59:07.520Z,992.9
2019-05-18T02:00:08.882Z,992.8
2019-05-18T02:01:10.227Z,992.9
2019-05-18T02:02:11.582Z,992.9
2019-05-18T02:03:12.926Z,992.9
2019-05-18T02:04:14.292Z,992.8
2019-05-18T02:05:15.660Z,992.9
2019-05-18T02:06:17.012Z,992.9
2019-05-18T02:07:18.357Z,992.9
2019-05-18T02:08:19.713Z,992.9
2019-05-18T02:09:21.061Z,992.8
2019-05-18T02:10:22.431Z,992.9
2019-05-18T02:11:23.767Z,992.9
2019-05-18T02:12:25.121Z,992.9
2019-05-18T02:13:26.491Z,992.9
2019-05-18T02:14:27.840Z,992.9
2019-05-18T02:15:29.195Z,992.9
2019-05-18T02:16:30.551Z,992.9
2019-05-18T02:17:31.895Z,992.9
2019-05-18T02:18:33.245Z,992.9
2019-05-18T02:19:34.602Z,992.9
2019-05-18T02:20:35.955Z,992.9
2019-05-18T02:21:37.312Z,992.9
2019-05-18T02:22:38.663Z,992.9
2019-05-18T02:23:40.063Z,992.9
2019-05-18T02:24:41.402Z,992.9
2019-05-18T02:25:42.755Z,992.9
2019-05-18T02:26:44.110Z,992.9
2019-05-18T02:27:45.458Z,993.0
2019-05-18T02:28:46.820Z,993.0
2019-05-18T02:29:48.186Z,993.0
2019-05-18T02:30:49.536Z,993.0
2019-05-18T02:31:50.891Z,992.9
2019-05-18T02:32:52.247Z,993.0
2019-05-18T02:33:53.597Z,992.9
2019-05-18T02:34:54.952Z,993.0
2019-05-18T02:35:56.327Z,992.9
2019-05-18T02:36:57.656Z,992.9
2019-05-18T02:37:59.007Z,993.0
2019-05-18T02:39:00.361Z,992.9
2019-05-18T02:40:01.714Z,993.0
2019-05-18T02:41:03.068Z,992.9
2019-05-18T02:42:04.451Z,992.9
2019-05-18T02:43:05.801Z,992.8
2019-05-18T02:44:07.152Z,992.8
2019-05-18T02:45:08.507Z,992.8
2019-05-18T02:46:09.853Z,992.8
2019-05-18T02:47:11.209Z,992.8
2019-05-18T02:48:12.608Z,992.8
2019-05-18T02:49:13.912Z,992.8
2019-05-18T02:50:15.264Z,992.8
2019-05-18T02:51:16.615Z,992.8
2019-05-18T02:52:17.975Z,992.8
2019-05-18T02:53:19.330Z,992.8
2019-05-18T02:54:20.685Z,992.8
2019-05-18T02:55:22.037Z,992.9
2019-05-18T02:56:23.401Z,992.9
2019-05-18T02:57:24.742Z,992.9
2019-05-18T02:58:26.091Z,992.9
2019-05-18T02:59:27.441Z,992.9
2019-05-18T03:00:28.796Z,992.9
2019-05-18T03:01:30.142Z,992.9
2019-05-18T03:02:31.498Z,992.9
2019-05-18T03:03:32.858Z,992.9
2019-05-18T03:04:34.212Z,992.9
2019-05-18T03:05:35.565Z,992.9
2019-05-18T03:06:36.919Z,992.9
2019-05-18T03:07:38.298Z,992.9
2019-05-18T03:08:39.648Z,992.9
2019-05-18T03:09:41.018Z,992.9
2019-05-18T03:10:42.512Z,992.9
2019-05-18T03:11:43.863Z,992.9
2019-05-18T03:12:45.223Z,992.8
2019-05-18T03:13:46.580Z,992.9
2019-05-18T03:14:47.932Z,992.9
2019-05-18T03:15:49.282Z,992.9
2019-05-18T03:16:50.637Z,992.9
2019-05-18T03:17:52.025Z,992.9
2019-05-18T03:19:07.757Z,992.8
2019-05-18T03:19:54.672Z,992.9
2019-05-18T03:20:56.024Z,992.8
2019-05-18T03:22:00.718Z,992.8
2019-05-18T03:22:58.714Z,992.8
2019-05-18T03:24:00.067Z,992.8
2019-05-18T03:25:01.424Z,992.8
2019-05-18T03:26:02.776Z,992.8
2019-05-18T03:27:04.119Z,992.8
2019-05-18T03:28:05.472Z,992.8
2019-05-18T03:29:06.833Z,992.8
2019-05-18T03:30:08.182Z,992.8
2019-05-18T03:31:09.554Z,992.8
2019-05-18T03:32:10.915Z,992.8
2019-05-18T03:33:12.285Z,992.8
2019-05-18T03:34:13.635Z,992.9
2019-05-18T03:35:14.998Z,992.8
2019-05-18T03:36:16.336Z,992.8
2019-05-18T03:37:17.713Z,992.8
2019-05-18T03:38:19.082Z,992.8
2019-05-18T03:39:20.424Z,992.9
2019-05-18T03:40:21.778Z,992.9
2019-05-18T03:41:23.150Z,992.8
2019-05-18T03:42:24.537Z,992.9
2019-05-18T03:43:25.895Z,992.9
2019-05-18T03:44:27.248Z,992.9
2019-05-18T03:45:28.609Z,992.9
2019-05-18T03:46:29.967Z,992.9
2019-05-18T03:47:31.325Z,992.9
2019-05-18T03:48:32.684Z,992.9
2019-05-18T03:49:34.037Z,992.9
2019-05-18T03:50:35.403Z,992.9
2019-05-18T03:51:36.753Z,992.9
2019-05-18T03:52:38.201Z,992.9
2019-05-18T03:53:39.436Z,992.9
2019-05-18T03:54:40.789Z,992.8
2019-05-18T03:55:42.144Z,992.8
2019-05-18T03:56:43.514Z,992.8
2019-05-18T03:57:44.870Z,992.8
2019-05-18T03:58:46.230Z,992.9
2019-05-18T03:59:47.617Z,992.8
2019-05-18T04:00:48.991Z,992.9
2019-05-18T04:01:50.340Z,992.9
2019-05-18T04:02:51.702Z,992.9
2019-05-18T04:03:53.094Z,992.9
2019-05-18T04:04:54.438Z,992.9
2019-05-18T04:05:55.775Z,992.9
2019-05-18T04:06:57.125Z,992.9
2019-05-18T04:07:58.490Z,992.9
2019-05-18T04:08:59.843Z,992.9
2019-05-18T04:10:01.199Z,992.9
2019-05-18T04:11:02.554Z,992.9
2019-05-18T04:12:03.918Z,992.9
2019-05-18T04:13:05.274Z,992.9
2019-05-18T04:14:08.482Z,992.9
2019-05-18T04:15:07.965Z,992.9
2019-05-18T04:16:09.324Z,992.9
2019-05-18T04:17:10.679Z,992.9
2019-05-18T04:18:12.044Z,993.0
2019-05-18T04:19:13.394Z,993.0
2019-05-18T04:20:14.758Z,993.0
2019-05-18T04:21:16.119Z,993.0
2019-05-18T04:22:17.479Z,993.0
2019-05-18T04:23:18.834Z,993.0
2019-05-18T04:24:20.198Z,993.0
2019-05-18T04:25:21.561Z,993.0
2019-05-18T04:26:22.925Z,993.0
2019-05-18T04:27:24.270Z,993.1
2019-05-18T04:28:25.636Z,993.0
2019-05-18T04:29:26.989Z,993.0
2019-05-18T04:30:28.339Z,993.1
2019-05-18T04:31:32.160Z,993.1
2019-05-18T04:32:31.062Z,993.1
2019-05-18T04:33:32.421Z,993.1
2019-05-18T04:34:33.809Z,993.2
2019-05-18T04:35:35.164Z,993.2
2019-05-18T04:36:36.525Z,993.2
2019-05-18T04:37:37.884Z,993.2
2019-05-18T04:38:39.245Z,993.2
2019-05-18T04:39:40.604Z,993.3
2019-05-18T04:40:41.963Z,993.3
2019-05-18T04:41:43.328Z,993.2
2019-05-18T04:42:44.689Z,993.2
2019-05-18T04:43:46.050Z,993.2
2019-05-18T04:44:47.414Z,993.3
2019-05-18T04:45:48.770Z,993.2
2019-05-18T04:46:50.125Z,993.3
2019-05-18T04:47:51.502Z,993.3
2019-05-18T04:48:52.857Z,993.3
2019-05-18T04:50:04.344Z,993.3
2019-05-18T04:50:55.543Z,993.3
2019-05-18T04:51:56.901Z,993.3
2019-05-18T04:52:58.278Z,993.3
2019-05-18T04:53:59.634Z,993.3
2019-05-18T04:55:00.999Z,993.3
2019-05-18T04:56:02.351Z,993.3
2019-05-18T04:57:03.747Z,993.3
2019-05-18T04:58:05.103Z,993.3
2019-05-18T04:59:06.511Z,993.3
2019-05-18T05:00:07.865Z,993.3
2019-05-18T05:01:09.229Z,993.3
2019-05-18T05:02:10.590Z,993.4
2019-05-18T05:03:11.954Z,993.4
2019-05-18T05:04:13.314Z,993.3
2019-05-18T05:05:14.674Z,993.3
2019-05-18T05:06:16.038Z,993.4
2019-05-18T05:07:17.406Z,993.4
2019-05-18T05:08:18.774Z,993.4
2019-05-18T05:09:20.140Z,993.4
2019-05-18T05:10:21.495Z,993.4
2019-05-18T05:11:22.859Z,993.4
2019-05-18T05:12:24.223Z,993.4
2019-05-18T05:13:25.595Z,993.4
2019-05-18T05:14:26.947Z,993.3
2019-05-18T05:15:28.306Z,993.3
2019-05-18T05:16:29.664Z,993.3
2019-05-18T05:17:31.020Z,993.3
2019-05-18T05:18:32.386Z,993.3
2019-05-18T05:19:33.750Z,993.3
2019-05-18T05:20:35.094Z,993.3
2019-05-18T05:21:36.454Z,993.4
2019-05-18T05:22:37.823Z,993.3
2019-05-18T05:23:39.189Z,993.3
2019-05-18T05:24:40.552Z,993.4
2019-05-18T05:25:41.908Z,993.4
2019-05-18T05:26:43.301Z,993.4
2019-05-18T05:27:44.660Z,993.4
2019-05-18T05:28:46.022Z,993.4
2019-05-18T05:29:47.425Z,993.4
2019-05-18T05:30:48.785Z,993.4
2019-05-18T05:31:50.159Z,993.4
2019-05-18T05:32:51.520Z,993.5
2019-05-18T05:33:52.880Z,993.4
2019-05-18T05:34:54.245Z,993.4
2019-05-18T05:35:55.621Z,993.4
2019-05-18T05:36:56.981Z,993.4
2019-05-18T05:37:58.341Z,993.4
2019-05-18T05:38:59.712Z,993.4
2019-05-18T05:40:01.074Z,993.4
2019-05-18T05:41:02.502Z,993.4
2019-05-18T05:42:03.839Z,993.4
2019-05-18T05:43:05.195Z,993.4
2019-05-18T05:44:06.561Z,993.5
2019-05-18T05:45:07.911Z,993.4
2019-05-18T05:46:09.274Z,993.5
2019-05-18T05:47:10.640Z,993.5
2019-05-18T05:48:12.021Z,993.4
2019-05-18T05:49:13.375Z,993.5
2019-05-18T05:50:14.742Z,993.5
2019-05-18T05:51:16.109Z,993.5
2019-05-18T05:52:17.476Z,993.5
2019-05-18T05:53:18.833Z,993.5
2019-05-18T05:54:20.202Z,993.5
2019-05-18T05:55:21.576Z,993.5
2019-05-18T05:56:22.935Z,993.5
2019-05-18T05:57:24.296Z,993.4
2019-05-18T05:58:25.723Z,993.5
2019-05-18T05:59:27.036Z,993.5
2019-05-18T06:00:28.392Z,993.5
2019-05-18T06:01:29.781Z,993.5
2019-05-18T06:02:31.145Z,993.5
2019-05-18T06:03:32.510Z,993.5
2019-05-18T06:04:33.870Z,993.5
2019-05-18T06:05:35.240Z,993.5
2019-05-18T06:06:36.605Z,993.6
2019-05-18T06:07:37.966Z,993.5
2019-05-18T06:08:39.331Z,993.5
2019-05-18T06:09:40.695Z,993.6
2019-05-18T06:10:42.472Z,993.5
2019-05-18T06:11:43.865Z,993.6
2019-05-18T06:12:45.202Z,993.6
2019-05-18T06:13:46.559Z,993.6
2019-05-18T06:14:47.925Z,993.6
2019-05-18T06:15:49.291Z,993.6
2019-05-18T06:16:50.655Z,993.6
2019-05-18T06:17:52.007Z,993.6
2019-05-18T06:18:53.377Z,993.6
2019-05-18T06:19:54.741Z,993.6
2019-05-18T06:20:56.129Z,993.6
2019-05-18T06:22:37.062Z,993.6
2019-05-18T06:23:38.489Z,993.6
2019-05-18T06:24:39.821Z,993.7
2019-05-18T06:25:41.233Z,993.7
2019-05-18T06:26:42.612Z,993.7
2019-05-18T06:27:43.991Z,993.7
2019-05-18T06:28:45.371Z,993.6
2019-05-18T06:29:46.762Z,993.6
2019-05-18T06:30:48.127Z,993.7
2019-05-18T06:31:49.501Z,993.6
2019-05-18T06:32:50.864Z,993.7
2019-05-18T06:33:52.230Z,993.6
2019-05-18T06:34:53.594Z,993.6
2019-05-18T06:35:54.959Z,993.7
2019-05-18T06:36:56.335Z,993.6
2019-05-18T06:37:57.717Z,993.7
2019-05-18T06:38:59.167Z,993.6
2019-05-18T06:40:00.529Z,993.6
2019-05-18T06:41:01.896Z,993.7
2019-05-18T06:42:03.335Z,993.7
2019-05-18T06:43:04.703Z,993.7
2019-05-18T06:44:06.073Z,993.7
2019-05-18T06:45:07.442Z,993.7
2019-05-18T06:46:08.812Z,993.7
2019-05-18T06:47:10.182Z,993.7
2019-05-18T06:48:11.537Z,993.7
2019-05-18T06:49:12.898Z,993.7
2019-05-18T06:50:14.261Z,993.8
2019-05-18T06:51:15.631Z,993.8
2019-05-18T06:52:16.998Z,993.8
2019-05-18T06:53:18.367Z,993.9
2019-05-18T06:54:19.730Z,993.9
2019-05-18T06:55:21.097Z,993.9
2019-05-18T06:56:22.464Z,993.9
2019-05-18T06:57:23.822Z,993.9
2019-05-18T06:58:25.201Z,994.1
2019-05-18T06:59:26.568Z,994.0
2019-05-18T07:00:27.921Z,994.1
2019-05-18T07:01:29.281Z,994.1
2019-05-18T07:02:30.650Z,994.2
2019-05-18T07:03:32.020Z,994.2
2019-05-18T07:04:33.378Z,994.2
2019-05-18T07:05:34.759Z,994.2
2019-05-18T07:06:36.130Z,994.2
2019-05-18T07:07:37.532Z,994.3
2019-05-18T07:08:38.892Z,994.3
2019-05-18T07:09:40.257Z,994.3
2019-05-18T07:10:41.629Z,994.2
2019-05-18T07:11:42.993Z,994.2
2019-05-18T07:12:44.357Z,994.2
2019-05-18T07:13:45.719Z,994.1
2019-05-18T07:14:47.086Z,994.0
2019-05-18T07:15:48.461Z,994.0
2019-05-18T07:16:49.839Z,994.0
2019-05-18T07:17:51.192Z,994.0
2019-05-18T07:18:52.563Z,994.0
2019-05-18T07:19:53.927Z,994.0
2019-05-18T07:20:55.300Z,994.0
2019-05-18T07:21:56.662Z,994.0
2019-05-18T07:22:58.087Z,994.1
2019-05-18T07:23:59.400Z,994.1
2019-05-18T07:25:00.762Z,994.1
2019-05-18T07:26:02.148Z,994.1
2019-05-18T07:27:03.511Z,994.1
2019-05-18T07:28:04.886Z,994.2
2019-05-18T07:29:06.247Z,994.3
2019-05-18T07:30:07.617Z,994.4
2019-05-18T07:31:08.979Z,995.7
2019-05-18T07:32:10.369Z,995.1
2019-05-18T07:33:11.742Z,994.9
2019-05-18T07:34:13.108Z,994.8
2019-05-18T07:35:14.484Z,994.4
2019-05-18T07:36:15.839Z,994.3
2019-05-18T07:37:17.210Z,994.2
2019-05-18T07:38:18.587Z,994.2
2019-05-18T07:39:19.953Z,994.2
2019-05-18T07:40:21.315Z,994.1
2019-05-18T07:41:22.694Z,994.1
2019-05-18T07:42:24.075Z,994.0
2019-05-18T07:43:25.449Z,994.0
2019-05-18T07:44:26.812Z,994.0
2019-05-18T07:45:28.189Z,994.1
2019-05-18T07:46:29.551Z,994.1
2019-05-18T07:47:30.926Z,994.1
2019-05-18T07:48:32.308Z,994.1
2019-05-18T07:49:33.688Z,994.1
2019-05-18T07:50:35.057Z,994.1
2019-05-18T07:51:37.323Z,994.1
2019-05-18T07:52:37.756Z,994.1
2019-05-18T07:53:39.127Z,994.2
2019-05-18T07:54:40.502Z,994.6
2019-05-18T07:55:41.873Z,994.5
2019-05-18T07:56:43.243Z,995.7
2019-05-18T07:57:44.604Z,996.3
2019-05-18T07:58:45.979Z,995.0
2019-05-18T07:59:47.380Z,995.0
2019-05-18T08:00:48.783Z,994.6
2019-05-18T08:01:50.160Z,994.5
2019-05-18T08:02:51.532Z,994.4
2019-05-18T08:03:52.899Z,994.3
2019-05-18T08:04:54.295Z,994.6
2019-05-18T08:05:55.658Z,995.3
2019-05-18T08:06:57.041Z,994.8
2019-05-18T08:07:58.424Z,994.5
2019-05-18T08:08:59.798Z,994.7
2019-05-18T08:10:01.182Z,995.4
2019-05-18T08:11:02.548Z,996.3
2019-05-18T08:12:03.916Z,995.3
2019-05-18T08:13:05.293Z,995.3
2019-05-18T08:14:06.664Z,996.0
2019-05-18T08:15:08.041Z,995.4
2019-05-18T08:16:09.412Z,996.1
2019-05-18T08:17:10.793Z,996.0
2019-05-18T08:18:12.162Z,995.6
2019-05-18T08:19:13.537Z,995.1
2019-05-18T08:20:14.932Z,994.7
2019-05-18T08:21:16.304Z,995.3
2019-05-18T08:22:17.673Z,994.6
2019-05-18T08:23:19.053Z,994.6
2019-05-18T08:24:20.442Z,994.3
2019-05-18T08:25:21.824Z,994.5
2019-05-18T08:26:23.252Z,994.4
2019-05-18T08:27:24.620Z,994.7
2019-05-18T08:28:26.005Z,995.9
2019-05-18T08:29:27.389Z,995.1
2019-05-18T08:30:28.738Z,995.4
2019-05-18T08:31:30.120Z,995.5
2019-05-18T08:32:31.496Z,994.9
2019-05-18T08:33:32.869Z,994.6
2019-05-18T08:34:34.240Z,994.4
2019-05-18T08:35:35.622Z,994.4
2019-05-18T08:36:36.998Z,994.6
2019-05-18T08:37:38.384Z,994.8
2019-05-18T08:38:39.769Z,995.2
2019-05-18T08:39:41.134Z,995.9
2019-05-18T08:40:42.529Z,995.9
2019-05-18T08:41:43.919Z,995.8
2019-05-18T08:42:45.282Z,995.8
2019-05-18T08:43:46.673Z,995.7
2019-05-18T08:44:48.095Z,995.6
2019-05-18T08:45:49.688Z,995.7
2019-05-18T08:46:51.023Z,995.1
2019-05-18T08:47:52.396Z,995.1
2019-05-18T08:48:53.779Z,994.7
2019-05-18T08:49:55.158Z,994.3
2019-05-18T08:50:56.543Z,994.2
2019-05-18T08:52:07.884Z,994.7
2019-05-18T08:52:59.262Z,994.8
2019-05-18T08:54:00.649Z,994.8
2019-05-18T08:55:02.208Z,994.8
2019-05-18T08:56:03.387Z,994.9
2019-05-18T08:57:04.753Z,995.6
2019-05-18T08:58:06.129Z,995.9
2019-05-18T08:59:07.510Z,995.6
2019-05-18T09:00:08.898Z,995.5
2019-05-18T09:01:10.270Z,995.5
2019-05-18T09:02:11.656Z,995.5
2019-05-18T09:03:13.033Z,995.5
2019-05-18T09:04:14.413Z,995.5
2019-05-18T09:05:15.798Z,995.5
2019-05-18T09:06:17.179Z,995.5
2019-05-18T09:07:18.573Z,995.3
2019-05-18T09:08:19.949Z,995.2
2019-05-18T09:09:21.463Z,995.0
2019-05-18T09:10:22.708Z,995.0
2019-05-18T09:11:24.093Z,994.9
2019-05-18T09:12:25.468Z,994.6
2019-05-18T09:13:26.859Z,994.5
2019-05-18T09:14:28.244Z,994.5
2019-05-18T09:15:29.623Z,994.6
2019-05-18T09:16:31.008Z,994.5
2019-05-18T09:17:32.388Z,994.4
2019-05-18T09:18:33.763Z,994.4
2019-05-18T09:19:35.138Z,994.4
2019-05-18T09:20:36.594Z,994.4
2019-05-18T09:21:37.952Z,994.5
2019-05-18T09:22:39.331Z,994.4
2019-05-18T09:23:40.711Z,994.4
2019-05-18T09:24:42.096Z,994.3
2019-05-18T09:25:43.475Z,994.5
2019-05-18T09:26:44.874Z,994.4
2019-05-18T09:27:46.258Z,994.4
2019-05-18T09:28:47.644Z,994.3
2019-05-18T09:29:49.062Z,994.4
2019-05-18T09:30:50.455Z,994.3
2019-05-18T09:31:51.834Z,994.4
2019-05-18T09:32:53.211Z,994.4
2019-05-18T09:33:54.610Z,994.4
2019-05-18T09:34:55.980Z,994.3
2019-05-18T09:35:57.380Z,994.3
2019-05-18T09:36:58.754Z,994.3
2019-05-18T09:38:00.142Z,994.4
2019-05-18T09:39:01.525Z,994.3
2019-05-18T09:40:02.909Z,994.3
2019-05-18T09:41:04.290Z,994.2
2019-05-18T09:42:05.670Z,994.3
2019-05-18T09:43:07.051Z,994.4
2019-05-18T09:44:08.445Z,994.4
2019-05-18T09:45:09.826Z,994.3
2019-05-18T09:46:11.205Z,994.2
2019-05-18T09:47:12.584Z,994.2
2019-05-18T09:48:14.006Z,994.3
2019-05-18T09:49:15.388Z,994.1
2019-05-18T09:50:16.780Z,994.1
2019-05-18T09:51:18.178Z,994.1
2019-05-18T09:52:19.584Z,994.0
2019-05-18T09:53:20.970Z,994.0
2019-05-18T09:54:22.354Z,994.0
2019-05-18T09:55:23.734Z,994.1
2019-05-18T09:56:25.121Z,994.1
2019-05-18T09:57:26.543Z,994.3
2019-05-18T09:58:27.912Z,994.2
2019-05-18T09:59:29.307Z,994.1
2019-05-18T10:00:37.959Z,994.0
2019-05-18T10:01:33.333Z,994.0
2019-05-18T10:02:34.717Z,994.0
2019-05-18T10:03:36.110Z,994.0
2019-05-18T10:04:37.505Z,994.1
2019-05-18T10:05:38.884Z,993.9
2019-05-18T10:06:40.264Z,994.0
2019-05-18T10:07:41.645Z,994.0
2019-05-18T10:08:43.030Z,993.9
2019-05-18T10:09:44.429Z,994.1
2019-05-18T10:10:45.798Z,994.0
2019-05-18T10:11:47.192Z,993.9
2019-05-18T10:12:48.570Z,993.7
2019-05-18T10:13:49.963Z,993.9
2019-05-18T10:14:51.369Z,994.1
2019-05-18T10:15:52.735Z,993.9
2019-05-18T10:16:54.127Z,994.0
2019-05-18T10:17:55.510Z,994.1
2019-05-18T10:18:56.884Z,993.7
2019-05-18T10:19:58.274Z,993.8
2019-05-18T10:20:59.661Z,994.0
2019-05-18T10:22:01.047Z,993.8
2019-05-18T10:23:12.397Z,993.9
2019-05-18T10:24:03.796Z,994.0
2019-05-18T10:25:05.175Z,993.2
2019-05-18T10:26:06.565Z,993.4
2019-05-18T10:27:07.937Z,993.8
2019-05-18T10:28:09.334Z,993.0
2019-05-18T10:29:10.727Z,993.0
2019-05-18T10:30:12.110Z,993.3
2019-05-18T10:31:14.131Z,994.2
2019-05-18T10:32:15.515Z,994.0
2019-05-18T10:33:16.899Z,993.4
2019-05-18T10:34:18.275Z,993.4
2019-05-18T10:35:19.704Z,993.4
2019-05-18T10:36:21.035Z,993.9
2019-05-18T10:37:22.424Z,993.8
2019-05-18T10:38:23.818Z,993.4
2019-05-18T10:39:25.186Z,993.4
2019-05-18T10:40:26.566Z,993.4
2019-05-18T10:41:27.975Z,993.9
2019-05-18T10:42:29.352Z,993.4
2019-05-18T10:43:30.778Z,993.2
2019-05-18T10:44:32.115Z,993.2
2019-05-18T10:45:33.510Z,993.2
2019-05-18T10:46:34.889Z,993.4
2019-05-18T10:47:36.267Z,993.3
2019-05-18T10:48:37.642Z,993.5
2019-05-18T10:49:39.022Z,993.2
2019-05-18T10:50:40.392Z,993.6
2019-05-18T10:51:41.781Z,993.2
2019-05-18T10:52:43.172Z,993.3
2019-05-18T10:53:44.535Z,993.4
2019-05-18T10:54:45.917Z,993.4
2019-05-18T10:55:47.307Z,993.4
2019-05-18T10:56:48.681Z,993.3
2019-05-18T10:57:50.047Z,993.2
2019-05-18T10:58:51.430Z,993.2
2019-05-18T10:59:52.826Z,993.2
2019-05-18T11:00:54.215Z,993.3
2019-05-18T11:01:55.589Z,993.3
2019-05-18T11:02:56.962Z,993.4
2019-05-18T11:03:58.337Z,993.4
2019-05-18T11:04:59.707Z,993.4
2019-05-18T11:06:01.085Z,993.5
2019-05-18T11:07:02.456Z,993.3
2019-05-18T11:08:03.871Z,993.3
2019-05-18T11:09:05.226Z,993.3
2019-05-18T11:10:06.590Z,993.2
2019-05-18T11:11:07.960Z,993.2
2019-05-18T11:12:09.330Z,993.2
2019-05-18T11:13:10.715Z,993.1
2019-05-18T11:14:12.085Z,993.2
2019-05-18T11:15:13.460Z,993.1
2019-05-18T11:16:14.837Z,993.5
2019-05-18T11:17:16.217Z,993.5
2019-05-18T11:18:17.585Z,993.0
2019-05-18T11:19:18.992Z,993.1
2019-05-18T11:20:20.356Z,993.0
2019-05-18T11:21:21.743Z,993.1
2019-05-18T11:22:23.107Z,993.1
2019-05-18T11:23:24.498Z,993.1
2019-05-18T11:24:25.873Z,993.1
2019-05-18T11:25:27.235Z,993.1
2019-05-18T11:26:28.610Z,993.2
2019-05-18T11:27:29.987Z,993.2
2019-05-18T11:28:31.361Z,993.1
2019-05-18T11:29:32.748Z,993.3
2019-05-18T11:30:34.957Z,993.4
2019-05-18T11:31:36.332Z,993.3
2019-05-18T11:32:38.206Z,993.1
2019-05-18T11:33:39.578Z,993.1
2019-05-18T11:34:40.950Z,993.2
2019-05-18T11:35:42.334Z,993.2
2019-05-18T11:36:43.767Z,993.1
2019-05-18T11:37:45.086Z,993.2
2019-05-18T11:38:46.472Z,993.1
2019-05-18T11:39:47.900Z,993.2
2019-05-18T11:40:49.267Z,993.5
2019-05-18T11:41:50.642Z,993.2
2019-05-18T11:42:52.013Z,993.2
2019-05-18T11:43:53.388Z,993.2
2019-05-18T11:44:54.774Z,993.0
2019-05-18T11:45:56.138Z,993.0
2019-05-18T11:46:57.507Z,993.0
2019-05-18T11:47:58.876Z,993.0
2019-05-18T11:49:00.247Z,992.9
2019-05-18T11:50:01.715Z,993.1
2019-05-18T11:51:02.962Z,993.4
2019-05-18T11:52:04.344Z,993.6
2019-05-18T11:53:05.709Z,993.6
2019-05-18T11:54:07.106Z,993.4
2019-05-18T11:55:08.475Z,993.6
2019-05-18T11:56:09.870Z,993.5
2019-05-18T11:57:11.277Z,993.0
2019-05-18T11:58:12.582Z,993.1
2019-05-18T11:59:15.718Z,993.3
2019-05-18T12:00:15.296Z,992.9
2019-05-18T12:01:16.712Z,993.4
2019-05-18T12:02:18.086Z,993.3
2019-05-18T12:03:19.493Z,993.2
2019-05-18T12:04:20.861Z,993.1
2019-05-18T12:05:22.236Z,993.1
2019-05-18T12:06:23.618Z,993.1
2019-05-18T12:07:24.984Z,992.9
2019-05-18T12:08:26.368Z,992.8
2019-05-18T12:09:27.746Z,992.6
2019-05-18T12:10:29.152Z,992.7
2019-05-18T12:11:30.543Z,992.6
2019-05-18T12:12:31.943Z,992.7
2019-05-18T12:13:33.343Z,992.7
2019-05-18T12:14:34.738Z,992.6
2019-05-18T12:15:36.112Z,992.8
2019-05-18T12:16:37.505Z,992.8
2019-05-18T12:17:38.882Z,992.9
2019-05-18T12:18:40.268Z,993.0
2019-05-18T12:19:41.662Z,993.3
2019-05-18T12:20:43.044Z,993.1
2019-05-18T12:22:24.033Z,992.9
2019-05-18T12:23:27.249Z,993.0
2019-05-18T12:24:28.657Z,992.9
2019-05-18T12:25:30.042Z,992.9
2019-05-18T12:26:31.408Z,992.8
2019-05-18T12:27:33.386Z,992.7
2019-05-18T12:28:34.743Z,992.7
2019-05-18T12:29:36.119Z,992.6
2019-05-18T12:30:37.493Z,992.7
2019-05-18T12:31:38.867Z,992.7
2019-05-18T12:32:40.235Z,992.7
2019-05-18T12:33:41.610Z,992.8
2019-05-18T12:34:44.891Z,992.8
2019-05-18T12:35:44.328Z,992.8
2019-05-18T12:36:45.707Z,992.8
2019-05-18T12:37:47.079Z,993.0
2019-05-18T12:38:48.460Z,993.1
2019-05-18T12:39:49.829Z,993.2
2019-05-18T12:40:51.197Z,993.2
2019-05-18T12:41:52.588Z,993.2
2019-05-18T12:42:53.954Z,992.9
2019-05-18T12:43:55.332Z,992.5
2019-05-18T12:44:56.700Z,992.8
2019-05-18T12:45:58.138Z,992.5
2019-05-18T12:46:59.494Z,992.9
2019-05-18T12:48:00.891Z,993.0
2019-05-18T12:49:02.266Z,993.0
2019-05-18T12:50:03.644Z,993.1
2019-05-18T12:51:05.039Z,992.9
2019-05-18T12:52:06.413Z,993.1
2019-05-18T12:53:07.789Z,992.9
2019-05-18T12:54:09.164Z,993.0
2019-05-18T12:55:11.358Z,992.9
2019-05-18T12:56:12.733Z,992.4
2019-05-18T12:57:14.119Z,992.5
2019-05-18T12:58:15.493Z,993.0
2019-05-18T12:59:16.875Z,992.9
2019-05-18T13:00:18.272Z,992.7
2019-05-18T13:01:19.642Z,992.6
2019-05-18T13:02:21.026Z,992.5
2019-05-18T13:03:22.399Z,992.4
2019-05-18T13:04:23.803Z,992.4
2019-05-18T13:05:25.195Z,992.5
2019-05-18T13:06:26.574Z,992.8
2019-05-18T13:07:27.964Z,992.8
2019-05-18T13:08:29.334Z,992.6
2019-05-18T13:09:30.713Z,992.5
2019-05-18T13:10:32.082Z,992.5
2019-05-18T13:11:33.477Z,992.4
2019-05-18T13:12:34.871Z,992.2